sensor_id;sensor_type;location;lat;lon;timestamp;P1;durP1;ratioP1;P2;durP2;ratioP2
79410;SDS011;69635;50.964;6.948;2024-01-25T00:00:56;11.98;;;2.60;;
79410;SDS011;69635;50.964;6.948;2024-01-25T00:03:21;16.63;;;4.03;;
79410;SDS011;69635;50.964;6.948;2024-01-25T00:08:22;16.30;;;3.08;;
79410;SDS011;69635;50.964;6.948;2024-01-25T00:10:48;11.05;;;2.88;;
79410;SDS011;69635;50.964;6.948;2024-01-25T00:13:13;10.30;;;2.53;;
79410;SDS011;69635;50.964;6.948;2024-01-25T00:15:39;16.67;;;3.40;;
79410;SDS011;69635;50.964;6.948;2024-01-25T00:18:05;16.70;;;4.03;;
79410;SDS011;69635;50.964;6.948;2024-01-25T00:20:30;15.07;;;2.80;;
79410;SDS011;69635;50.964;6.948;2024-01-25T00:22:56;20.73;;;3.53;;
79410;SDS011;69635;50.964;6.948;2024-01-25T00:25:25;13.13;;;2.67;;
79410;SDS011;69635;50.964;6.948;2024-01-25T00:27:50;14.80;;;2.72;;
79410;SDS011;69635;50.964;6.948;2024-01-25T00:30:16;12.48;;;2.50;;
79410;SDS011;69635;50.964;6.948;2024-01-25T00:32:41;15.65;;;3.15;;
79410;SDS011;69635;50.964;6.948;2024-01-25T00:35:09;18.95;;;2.92;;
79410;SDS011;69635;50.964;6.948;2024-01-25T00:37:39;27.63;;;2.83;;
79410;SDS011;69635;50.964;6.948;2024-01-25T00:40:08;23.90;;;2.65;;
79410;SDS011;69635;50.964;6.948;2024-01-25T00:42:37;16.33;;;3.35;;
79410;SDS011;69635;50.964;6.948;2024-01-25T00:45:07;9.13;;;2.50;;
79410;SDS011;69635;50.964;6.948;2024-01-25T00:47:36;20.90;;;3.28;;
79410;SDS011;69635;50.964;6.948;2024-01-25T00:50:08;23.42;;;5.72;;
79410;SDS011;69635;50.964;6.948;2024-01-25T00:52:33;14.60;;;2.47;;
79410;SDS011;69635;50.964;6.948;2024-01-25T00:55:01;19.70;;;3.65;;
79410;SDS011;69635;50.964;6.948;2024-01-25T00:57:27;18.67;;;3.45;;
79410;SDS011;69635;50.964;6.948;2024-01-25T00:59:52;20.45;;;3.60;;
79410;SDS011;69635;50.964;6.948;2024-01-25T01:02:18;14.48;;;3.47;;
79410;SDS011;69635;50.964;6.948;2024-01-25T01:04:47;20.33;;;3.30;;
79410;SDS011;69635;50.964;6.948;2024-01-25T01:07:12;8.55;;;2.55;;
79410;SDS011;69635;50.964;6.948;2024-01-25T01:09:38;18.42;;;4.32;;
79410;SDS011;69635;50.964;6.948;2024-01-25T01:12:07;15.35;;;2.97;;
79410;SDS011;69635;50.964;6.948;2024-01-25T01:14:35;14.25;;;3.47;;
79410;SDS011;69635;50.964;6.948;2024-01-25T01:17:03;23.45;;;3.17;;
79410;SDS011;69635;50.964;6.948;2024-01-25T01:19:32;30.08;;;4.50;;
79410;SDS011;69635;50.964;6.948;2024-01-25T01:21:57;14.82;;;3.67;;
79410;SDS011;69635;50.964;6.948;2024-01-25T01:24:24;12.32;;;3.72;;
79410;SDS011;69635;50.964;6.948;2024-01-25T01:26:49;20.88;;;3.05;;
79410;SDS011;69635;50.964;6.948;2024-01-25T01:29:15;26.38;;;3.47;;
79410;SDS011;69635;50.964;6.948;2024-01-25T01:31:46;20.17;;;3.78;;
79410;SDS011;69635;50.964;6.948;2024-01-25T01:34:12;5.72;;;2.22;;
79410;SDS011;69635;50.964;6.948;2024-01-25T01:36:38;24.17;;;3.92;;
79410;SDS011;69635;50.964;6.948;2024-01-25T01:39:06;22.40;;;3.65;;
79410;SDS011;69635;50.964;6.948;2024-01-25T01:41:32;15.07;;;2.65;;
79410;SDS011;69635;50.964;6.948;2024-01-25T01:43:57;15.73;;;3.70;;
79410;SDS011;69635;50.964;6.948;2024-01-25T01:46:33;19.35;;;2.92;;
79410;SDS011;69635;50.964;6.948;2024-01-25T01:49:07;26.30;;;3.33;;
79410;SDS011;69635;50.964;6.948;2024-01-25T01:51:35;15.13;;;2.55;;
79410;SDS011;69635;50.964;6.948;2024-01-25T01:54:14;21.08;;;4.97;;
79410;SDS011;69635;50.964;6.948;2024-01-25T01:56:40;27.50;;;4.20;;
79410;SDS011;69635;50.964;6.948;2024-01-25T01:59:09;16.92;;;3.00;;
79410;SDS011;69635;50.964;6.948;2024-01-25T02:01:36;15.63;;;3.10;;
79410;SDS011;69635;50.964;6.948;2024-01-25T02:04:03;15.38;;;3.20;;
79410;SDS011;69635;50.964;6.948;2024-01-25T02:06:29;18.30;;;3.38;;
79410;SDS011;69635;50.964;6.948;2024-01-25T02:08:55;13.10;;;2.67;;
79410;SDS011;69635;50.964;6.948;2024-01-25T02:11:24;23.73;;;4.97;;
79410;SDS011;69635;50.964;6.948;2024-01-25T02:13:52;14.68;;;2.97;;
79410;SDS011;69635;50.964;6.948;2024-01-25T02:16:17;22.10;;;2.72;;
79410;SDS011;69635;50.964;6.948;2024-01-25T02:18:44;16.67;;;3.20;;
79410;SDS011;69635;50.964;6.948;2024-01-25T02:21:13;21.77;;;3.15;;
79410;SDS011;69635;50.964;6.948;2024-01-25T02:23:39;21.48;;;3.83;;
79410;SDS011;69635;50.964;6.948;2024-01-25T02:26:07;32.13;;;3.85;;
79410;SDS011;69635;50.964;6.948;2024-01-25T02:28:33;18.55;;;3.60;;
79410;SDS011;69635;50.964;6.948;2024-01-25T02:30:59;17.77;;;2.53;;
79410;SDS011;69635;50.964;6.948;2024-01-25T02:33:26;19.65;;;3.35;;
79410;SDS011;69635;50.964;6.948;2024-01-25T02:35:52;19.17;;;3.05;;
79410;SDS011;69635;50.964;6.948;2024-01-25T02:38:17;15.00;;;3.70;;
79410;SDS011;69635;50.964;6.948;2024-01-25T02:40:43;20.73;;;3.45;;
79410;SDS011;69635;50.964;6.948;2024-01-25T02:43:08;20.95;;;3.33;;
79410;SDS011;69635;50.964;6.948;2024-01-25T02:45:37;19.58;;;3.35;;
79410;SDS011;69635;50.964;6.948;2024-01-25T02:48:02;13.20;;;3.00;;
79410;SDS011;69635;50.964;6.948;2024-01-25T02:50:28;19.05;;;3.65;;
79410;SDS011;69635;50.964;6.948;2024-01-25T02:52:54;15.43;;;2.55;;
79410;SDS011;69635;50.964;6.948;2024-01-25T02:55:20;19.13;;;3.53;;
79410;SDS011;69635;50.964;6.948;2024-01-25T02:57:51;15.77;;;3.88;;
79410;SDS011;69635;50.964;6.948;2024-01-25T03:00:17;16.42;;;2.80;;
79410;SDS011;69635;50.964;6.948;2024-01-25T03:02:42;25.40;;;3.83;;
79410;SDS011;69635;50.964;6.948;2024-01-25T03:05:08;12.85;;;2.42;;
79410;SDS011;69635;50.964;6.948;2024-01-25T03:07:42;14.88;;;2.65;;
79410;SDS011;69635;50.964;6.948;2024-01-25T03:10:08;15.00;;;3.85;;
79410;SDS011;69635;50.964;6.948;2024-01-25T03:12:34;14.73;;;4.30;;
79410;SDS011;69635;50.964;6.948;2024-01-25T03:15:03;25.48;;;3.67;;
79410;SDS011;69635;50.964;6.948;2024-01-25T03:19:57;16.83;;;3.53;;
79410;SDS011;69635;50.964;6.948;2024-01-25T03:22:23;14.75;;;2.67;;
79410;SDS011;69635;50.964;6.948;2024-01-25T03:24:48;21.23;;;3.78;;
79410;SDS011;69635;50.964;6.948;2024-01-25T03:27:17;13.68;;;2.78;;
79410;SDS011;69635;50.964;6.948;2024-01-25T03:29:43;10.02;;;2.45;;
79410;SDS011;69635;50.964;6.948;2024-01-25T03:32:11;11.45;;;1.92;;
79410;SDS011;69635;50.964;6.948;2024-01-25T03:34:37;17.73;;;3.60;;
79410;SDS011;69635;50.964;6.948;2024-01-25T03:37:09;21.40;;;3.22;;
79410;SDS011;69635;50.964;6.948;2024-01-25T03:39:34;16.67;;;3.28;;
79410;SDS011;69635;50.964;6.948;2024-01-25T03:42:00;16.92;;;3.80;;
79410;SDS011;69635;50.964;6.948;2024-01-25T03:44:25;27.42;;;3.90;;
79410;SDS011;69635;50.964;6.948;2024-01-25T03:46:53;17.63;;;3.10;;
79410;SDS011;69635;50.964;6.948;2024-01-25T03:49:21;21.75;;;3.80;;
79410;SDS011;69635;50.964;6.948;2024-01-25T03:51:48;10.88;;;2.40;;
79410;SDS011;69635;50.964;6.948;2024-01-25T03:54:14;26.52;;;4.22;;
79410;SDS011;69635;50.964;6.948;2024-01-25T03:56:39;31.92;;;3.20;;
79410;SDS011;69635;50.964;6.948;2024-01-25T03:59:05;28.58;;;4.57;;
79410;SDS011;69635;50.964;6.948;2024-01-25T04:01:47;20.00;;;4.15;;
79410;SDS011;69635;50.964;6.948;2024-01-25T04:04:13;25.75;;;4.15;;
79410;SDS011;69635;50.964;6.948;2024-01-25T04:06:45;11.85;;;3.00;;
79410;SDS011;69635;50.964;6.948;2024-01-25T04:09:13;28.10;;;3.95;;
79410;SDS011;69635;50.964;6.948;2024-01-25T04:11:47;27.20;;;3.55;;
79410;SDS011;69635;50.964;6.948;2024-01-25T04:14:13;18.30;;;3.28;;
79410;SDS011;69635;50.964;6.948;2024-01-25T04:16:39;13.07;;;3.78;;
79410;SDS011;69635;50.964;6.948;2024-01-25T04:19:05;19.20;;;4.00;;
79410;SDS011;69635;50.964;6.948;2024-01-25T04:21:31;28.20;;;4.32;;
79410;SDS011;69635;50.964;6.948;2024-01-25T04:23:56;19.70;;;4.22;;
79410;SDS011;69635;50.964;6.948;2024-01-25T04:26:24;19.55;;;3.65;;
79410;SDS011;69635;50.964;6.948;2024-01-25T04:28:49;22.85;;;4.30;;
79410;SDS011;69635;50.964;6.948;2024-01-25T04:31:15;25.77;;;4.53;;
79410;SDS011;69635;50.964;6.948;2024-01-25T04:33:41;22.83;;;4.07;;
79410;SDS011;69635;50.964;6.948;2024-01-25T04:36:07;25.33;;;5.10;;
79410;SDS011;69635;50.964;6.948;2024-01-25T04:38:32;16.85;;;3.45;;
79410;SDS011;69635;50.964;6.948;2024-01-25T04:40:58;13.73;;;4.15;;
79410;SDS011;69635;50.964;6.948;2024-01-25T04:43:26;35.05;;;4.50;;
79410;SDS011;69635;50.964;6.948;2024-01-25T04:46:04;23.60;;;3.15;;
79410;SDS011;69635;50.964;6.948;2024-01-25T04:48:33;27.35;;;4.05;;
79410;SDS011;69635;50.964;6.948;2024-01-25T04:51:01;19.20;;;4.45;;
79410;SDS011;69635;50.964;6.948;2024-01-25T04:53:27;30.75;;;4.93;;
79410;SDS011;69635;50.964;6.948;2024-01-25T04:55:53;21.00;;;4.55;;
79410;SDS011;69635;50.964;6.948;2024-01-25T04:58:19;27.92;;;4.15;;
79410;SDS011;69635;50.964;6.948;2024-01-25T05:00:44;17.40;;;4.25;;
79410;SDS011;69635;50.964;6.948;2024-01-25T05:03:10;26.00;;;3.92;;
79410;SDS011;69635;50.964;6.948;2024-01-25T05:05:35;17.33;;;3.22;;
79410;SDS011;69635;50.964;6.948;2024-01-25T05:08:01;26.35;;;4.72;;
79410;SDS011;69635;50.964;6.948;2024-01-25T05:10:26;23.90;;;4.30;;
79410;SDS011;69635;50.964;6.948;2024-01-25T05:12:52;29.65;;;5.75;;
79410;SDS011;69635;50.964;6.948;2024-01-25T05:15:17;20.65;;;3.58;;
79410;SDS011;69635;50.964;6.948;2024-01-25T05:17:44;28.10;;;4.05;;
79410;SDS011;69635;50.964;6.948;2024-01-25T05:20:09;21.50;;;4.20;;
79410;SDS011;69635;50.964;6.948;2024-01-25T05:22:35;27.65;;;4.15;;
79410;SDS011;69635;50.964;6.948;2024-01-25T05:25:06;29.23;;;4.70;;
79410;SDS011;69635;50.964;6.948;2024-01-25T05:27:33;19.52;;;3.35;;
79410;SDS011;69635;50.964;6.948;2024-01-25T05:29:58;21.30;;;3.72;;
79410;SDS011;69635;50.964;6.948;2024-01-25T05:32:24;17.83;;;3.65;;
79410;SDS011;69635;50.964;6.948;2024-01-25T05:34:49;25.38;;;4.03;;
79410;SDS011;69635;50.964;6.948;2024-01-25T05:37:14;19.77;;;3.35;;
79410;SDS011;69635;50.964;6.948;2024-01-25T05:39:40;24.88;;;3.80;;
79410;SDS011;69635;50.964;6.948;2024-01-25T05:42:05;29.13;;;3.97;;
79410;SDS011;69635;50.964;6.948;2024-01-25T05:44:31;18.95;;;3.80;;
79410;SDS011;69635;50.964;6.948;2024-01-25T05:46:56;23.13;;;3.38;;
79410;SDS011;69635;50.964;6.948;2024-01-25T05:49:22;30.77;;;5.32;;
79410;SDS011;69635;50.964;6.948;2024-01-25T05:51:47;20.75;;;3.95;;
79410;SDS011;69635;50.964;6.948;2024-01-25T05:54:12;14.45;;;3.42;;
79410;SDS011;69635;50.964;6.948;2024-01-25T05:56:38;23.98;;;4.00;;
79410;SDS011;69635;50.964;6.948;2024-01-25T05:59:03;28.98;;;4.00;;
79410;SDS011;69635;50.964;6.948;2024-01-25T06:01:29;23.67;;;3.60;;
79410;SDS011;69635;50.964;6.948;2024-01-25T06:03:54;13.52;;;3.97;;
79410;SDS011;69635;50.964;6.948;2024-01-25T06:06:20;19.05;;;3.40;;
79410;SDS011;69635;50.964;6.948;2024-01-25T06:08:45;30.48;;;3.95;;
79410;SDS011;69635;50.964;6.948;2024-01-25T06:11:11;15.65;;;3.78;;
79410;SDS011;69635;50.964;6.948;2024-01-25T06:13:36;15.80;;;3.70;;
79410;SDS011;69635;50.964;6.948;2024-01-25T06:16:02;18.88;;;3.38;;
79410;SDS011;69635;50.964;6.948;2024-01-25T06:18:27;35.67;;;5.47;;
79410;SDS011;69635;50.964;6.948;2024-01-25T06:20:56;25.35;;;3.70;;
79410;SDS011;69635;50.964;6.948;2024-01-25T06:23:21;19.90;;;4.20;;
79410;SDS011;69635;50.964;6.948;2024-01-25T06:25:46;30.73;;;3.85;;
79410;SDS011;69635;50.964;6.948;2024-01-25T06:28:12;26.70;;;4.85;;
79410;SDS011;69635;50.964;6.948;2024-01-25T06:30:38;20.70;;;4.45;;
79410;SDS011;69635;50.964;6.948;2024-01-25T06:33:04;24.50;;;3.97;;
79410;SDS011;69635;50.964;6.948;2024-01-25T06:35:30;24.15;;;4.70;;
79410;SDS011;69635;50.964;6.948;2024-01-25T06:37:56;14.30;;;3.90;;
79410;SDS011;69635;50.964;6.948;2024-01-25T06:40:22;21.60;;;3.58;;
79410;SDS011;69635;50.964;6.948;2024-01-25T06:42:47;29.83;;;5.00;;
79410;SDS011;69635;50.964;6.948;2024-01-25T06:45:13;23.55;;;4.47;;
79410;SDS011;69635;50.964;6.948;2024-01-25T06:47:38;26.95;;;4.07;;
79410;SDS011;69635;50.964;6.948;2024-01-25T06:50:04;29.67;;;5.43;;
79410;SDS011;69635;50.964;6.948;2024-01-25T06:52:30;29.38;;;4.95;;
79410;SDS011;69635;50.964;6.948;2024-01-25T06:54:55;25.58;;;3.95;;
79410;SDS011;69635;50.964;6.948;2024-01-25T06:57:20;31.30;;;5.10;;
79410;SDS011;69635;50.964;6.948;2024-01-25T06:59:46;19.25;;;5.15;;
79410;SDS011;69635;50.964;6.948;2024-01-25T07:02:13;26.20;;;4.20;;
79410;SDS011;69635;50.964;6.948;2024-01-25T07:04:38;26.02;;;4.90;;
79410;SDS011;69635;50.964;6.948;2024-01-25T07:07:05;24.55;;;4.25;;
79410;SDS011;69635;50.964;6.948;2024-01-25T07:09:31;34.08;;;5.07;;
79410;SDS011;69635;50.964;6.948;2024-01-25T07:11:56;19.80;;;3.85;;
79410;SDS011;69635;50.964;6.948;2024-01-25T07:14:22;28.25;;;5.18;;
79410;SDS011;69635;50.964;6.948;2024-01-25T07:16:47;27.35;;;3.85;;
79410;SDS011;69635;50.964;6.948;2024-01-25T07:19:13;19.58;;;3.78;;
79410;SDS011;69635;50.964;6.948;2024-01-25T07:21:39;22.88;;;4.45;;
79410;SDS011;69635;50.964;6.948;2024-01-25T07:24:05;31.17;;;5.10;;
79410;SDS011;69635;50.964;6.948;2024-01-25T07:26:31;19.25;;;4.10;;
79410;SDS011;69635;50.964;6.948;2024-01-25T07:28:56;32.97;;;5.15;;
79410;SDS011;69635;50.964;6.948;2024-01-25T07:31:24;33.30;;;5.38;;
79410;SDS011;69635;50.964;6.948;2024-01-25T07:33:50;24.23;;;4.50;;
79410;SDS011;69635;50.964;6.948;2024-01-25T07:36:16;24.73;;;4.47;;
79410;SDS011;69635;50.964;6.948;2024-01-25T07:38:42;22.40;;;4.95;;
79410;SDS011;69635;50.964;6.948;2024-01-25T07:41:08;17.65;;;4.13;;
79410;SDS011;69635;50.964;6.948;2024-01-25T07:43:33;21.02;;;4.50;;
79410;SDS011;69635;50.964;6.948;2024-01-25T07:45:58;16.10;;;4.32;;
79410;SDS011;69635;50.964;6.948;2024-01-25T07:48:24;23.05;;;5.43;;
79410;SDS011;69635;50.964;6.948;2024-01-25T07:50:49;20.50;;;4.35;;
79410;SDS011;69635;50.964;6.948;2024-01-25T07:53:15;23.80;;;3.72;;
79410;SDS011;69635;50.964;6.948;2024-01-25T07:55:41;21.88;;;4.53;;
79410;SDS011;69635;50.964;6.948;2024-01-25T07:58:07;36.55;;;4.50;;
79410;SDS011;69635;50.964;6.948;2024-01-25T08:00:32;26.73;;;4.18;;
79410;SDS011;69635;50.964;6.948;2024-01-25T08:02:58;32.30;;;5.13;;
79410;SDS011;69635;50.964;6.948;2024-01-25T08:05:23;28.40;;;5.93;;
79410;SDS011;69635;50.964;6.948;2024-01-25T08:07:49;22.45;;;4.50;;
79410;SDS011;69635;50.964;6.948;2024-01-25T08:10:14;19.35;;;4.15;;
79410;SDS011;69635;50.964;6.948;2024-01-25T08:12:41;23.35;;;4.63;;
79410;SDS011;69635;50.964;6.948;2024-01-25T08:15:09;30.00;;;4.57;;
79410;SDS011;69635;50.964;6.948;2024-01-25T08:17:36;16.40;;;5.05;;
79410;SDS011;69635;50.964;6.948;2024-01-25T08:20:02;15.48;;;4.32;;
79410;SDS011;69635;50.964;6.948;2024-01-25T08:22:29;19.77;;;4.53;;
79410;SDS011;69635;50.964;6.948;2024-01-25T08:24:54;39.40;;;6.93;;
79410;SDS011;69635;50.964;6.948;2024-01-25T08:27:20;24.13;;;5.28;;
79410;SDS011;69635;50.964;6.948;2024-01-25T08:29:45;25.15;;;5.80;;
79410;SDS011;69635;50.964;6.948;2024-01-25T08:32:10;26.35;;;5.72;;
79410;SDS011;69635;50.964;6.948;2024-01-25T08:34:36;21.00;;;4.65;;
79410;SDS011;69635;50.964;6.948;2024-01-25T08:37:01;22.75;;;5.38;;
79410;SDS011;69635;50.964;6.948;2024-01-25T08:39:27;17.98;;;4.43;;
79410;SDS011;69635;50.964;6.948;2024-01-25T08:41:52;28.88;;;5.45;;
79410;SDS011;69635;50.964;6.948;2024-01-25T08:44:18;18.95;;;4.43;;
79410;SDS011;69635;50.964;6.948;2024-01-25T08:46:44;19.92;;;4.97;;
79410;SDS011;69635;50.964;6.948;2024-01-25T08:49:09;24.00;;;5.20;;
79410;SDS011;69635;50.964;6.948;2024-01-25T08:51:37;33.10;;;5.65;;
79410;SDS011;69635;50.964;6.948;2024-01-25T08:54:03;18.45;;;4.68;;
79410;SDS011;69635;50.964;6.948;2024-01-25T08:56:29;23.25;;;5.25;;
79410;SDS011;69635;50.964;6.948;2024-01-25T08:58:54;25.77;;;5.50;;
79410;SDS011;69635;50.964;6.948;2024-01-25T09:01:20;22.55;;;5.40;;
79410;SDS011;69635;50.964;6.948;2024-01-25T09:03:45;22.33;;;5.13;;
79410;SDS011;69635;50.964;6.948;2024-01-25T09:06:11;24.73;;;5.38;;
79410;SDS011;69635;50.964;6.948;2024-01-25T09:08:37;30.48;;;6.45;;
79410;SDS011;69635;50.964;6.948;2024-01-25T09:11:03;27.35;;;5.10;;
79410;SDS011;69635;50.964;6.948;2024-01-25T09:13:28;21.85;;;5.38;;
79410;SDS011;69635;50.964;6.948;2024-01-25T09:15:54;22.13;;;6.03;;
79410;SDS011;69635;50.964;6.948;2024-01-25T09:18:20;31.48;;;6.20;;
79410;SDS011;69635;50.964;6.948;2024-01-25T09:20:46;23.67;;;6.05;;
79410;SDS011;69635;50.964;6.948;2024-01-25T09:23:13;9.88;;;4.13;;
79410;SDS011;69635;50.964;6.948;2024-01-25T09:28:09;20.15;;;6.22;;
79410;SDS011;69635;50.964;6.948;2024-01-25T09:30:37;28.35;;;6.97;;
79410;SDS011;69635;50.964;6.948;2024-01-25T09:33:03;23.23;;;5.47;;
79410;SDS011;69635;50.964;6.948;2024-01-25T09:35:29;26.77;;;6.32;;
79410;SDS011;69635;50.964;6.948;2024-01-25T09:37:54;22.70;;;7.15;;
79410;SDS011;69635;50.964;6.948;2024-01-25T09:40:20;23.00;;;6.57;;
79410;SDS011;69635;50.964;6.948;2024-01-25T09:42:48;24.15;;;6.18;;
79410;SDS011;69635;50.964;6.948;2024-01-25T09:45:17;19.42;;;5.57;;
79410;SDS011;69635;50.964;6.948;2024-01-25T09:47:44;27.98;;;6.40;;
79410;SDS011;69635;50.964;6.948;2024-01-25T09:50:10;14.68;;;5.75;;
79410;SDS011;69635;50.964;6.948;2024-01-25T09:52:39;27.83;;;5.60;;
79410;SDS011;69635;50.964;6.948;2024-01-25T09:55:08;24.98;;;5.68;;
79410;SDS011;69635;50.964;6.948;2024-01-25T09:57:39;21.35;;;6.50;;
79410;SDS011;69635;50.964;6.948;2024-01-25T10:00:09;27.73;;;6.30;;
79410;SDS011;69635;50.964;6.948;2024-01-25T10:02:37;27.23;;;6.38;;
79410;SDS011;69635;50.964;6.948;2024-01-25T10:05:02;20.13;;;4.47;;
79410;SDS011;69635;50.964;6.948;2024-01-25T10:07:37;32.13;;;7.05;;
79410;SDS011;69635;50.964;6.948;2024-01-25T10:10:07;27.17;;;6.35;;
79410;SDS011;69635;50.964;6.948;2024-01-25T10:12:33;24.67;;;6.25;;
79410;SDS011;69635;50.964;6.948;2024-01-25T10:14:59;21.08;;;5.85;;
79410;SDS011;69635;50.964;6.948;2024-01-25T10:17:25;28.90;;;6.35;;
79410;SDS011;69635;50.964;6.948;2024-01-25T10:19:51;28.75;;;6.18;;
79410;SDS011;69635;50.964;6.948;2024-01-25T10:22:16;32.33;;;5.93;;
79410;SDS011;69635;50.964;6.948;2024-01-25T10:24:42;23.85;;;6.68;;
79410;SDS011;69635;50.964;6.948;2024-01-25T10:27:07;22.30;;;6.95;;
79410;SDS011;69635;50.964;6.948;2024-01-25T10:29:36;27.48;;;6.43;;
79410;SDS011;69635;50.964;6.948;2024-01-25T10:32:02;21.35;;;5.05;;
79410;SDS011;69635;50.964;6.948;2024-01-25T10:34:28;30.42;;;5.03;;
79410;SDS011;69635;50.964;6.948;2024-01-25T10:36:55;22.65;;;5.75;;
79410;SDS011;69635;50.964;6.948;2024-01-25T10:39:21;23.05;;;6.07;;
79410;SDS011;69635;50.964;6.948;2024-01-25T10:41:47;23.02;;;5.68;;
79410;SDS011;69635;50.964;6.948;2024-01-25T10:44:18;23.95;;;5.63;;
79410;SDS011;69635;50.964;6.948;2024-01-25T10:46:47;29.92;;;5.85;;
79410;SDS011;69635;50.964;6.948;2024-01-25T10:49:13;22.00;;;5.95;;
79410;SDS011;69635;50.964;6.948;2024-01-25T10:51:39;25.20;;;6.05;;
79410;SDS011;69635;50.964;6.948;2024-01-25T10:54:07;24.50;;;5.47;;
79410;SDS011;69635;50.964;6.948;2024-01-25T10:56:36;20.25;;;5.50;;
79410;SDS011;69635;50.964;6.948;2024-01-25T10:59:02;16.75;;;4.85;;
79410;SDS011;69635;50.964;6.948;2024-01-25T11:01:28;23.23;;;5.60;;
79410;SDS011;69635;50.964;6.948;2024-01-25T11:03:54;24.42;;;5.40;;
79410;SDS011;69635;50.964;6.948;2024-01-25T11:06:20;20.25;;;5.28;;
79410;SDS011;69635;50.964;6.948;2024-01-25T11:08:47;22.48;;;4.63;;
79410;SDS011;69635;50.964;6.948;2024-01-25T11:11:13;26.85;;;5.40;;
79410;SDS011;69635;50.964;6.948;2024-01-25T11:13:40;15.90;;;5.03;;
79410;SDS011;69635;50.964;6.948;2024-01-25T11:16:14;17.75;;;4.93;;
79410;SDS011;69635;50.964;6.948;2024-01-25T11:18:50;22.42;;;5.05;;
79410;SDS011;69635;50.964;6.948;2024-01-25T11:21:37;22.13;;;5.78;;
79410;SDS011;69635;50.964;6.948;2024-01-25T11:24:03;23.55;;;4.85;;
79410;SDS011;69635;50.964;6.948;2024-01-25T11:26:32;17.25;;;5.20;;
79410;SDS011;69635;50.964;6.948;2024-01-25T11:28:57;16.58;;;4.22;;
79410;SDS011;69635;50.964;6.948;2024-01-25T11:31:25;21.73;;;5.00;;
79410;SDS011;69635;50.964;6.948;2024-01-25T11:33:53;19.85;;;5.15;;
79410;SDS011;69635;50.964;6.948;2024-01-25T11:36:22;15.43;;;4.90;;
79410;SDS011;69635;50.964;6.948;2024-01-25T11:38:48;21.58;;;5.15;;
79410;SDS011;69635;50.964;6.948;2024-01-25T11:41:13;17.83;;;4.40;;
79410;SDS011;69635;50.964;6.948;2024-01-25T11:43:40;20.13;;;4.32;;
79410;SDS011;69635;50.964;6.948;2024-01-25T11:46:05;20.85;;;5.78;;
79410;SDS011;69635;50.964;6.948;2024-01-25T11:48:31;19.17;;;4.15;;
79410;SDS011;69635;50.964;6.948;2024-01-25T11:50:58;21.08;;;4.40;;
79410;SDS011;69635;50.964;6.948;2024-01-25T11:53:24;19.75;;;4.07;;
79410;SDS011;69635;50.964;6.948;2024-01-25T11:55:50;21.38;;;4.82;;
79410;SDS011;69635;50.964;6.948;2024-01-25T11:58:16;13.95;;;3.88;;
79410;SDS011;69635;50.964;6.948;2024-01-25T12:00:42;18.45;;;5.05;;
79410;SDS011;69635;50.964;6.948;2024-01-25T12:03:08;17.20;;;4.40;;
79410;SDS011;69635;50.964;6.948;2024-01-25T12:05:34;17.35;;;5.15;;
79410;SDS011;69635;50.964;6.948;2024-01-25T12:07:59;17.85;;;4.53;;
79410;SDS011;69635;50.964;6.948;2024-01-25T12:10:25;22.63;;;4.95;;
79410;SDS011;69635;50.964;6.948;2024-01-25T12:12:51;15.82;;;4.15;;
79410;SDS011;69635;50.964;6.948;2024-01-25T12:15:16;20.35;;;4.05;;
79410;SDS011;69635;50.964;6.948;2024-01-25T12:17:42;15.52;;;3.38;;
79410;SDS011;69635;50.964;6.948;2024-01-25T12:20:07;22.92;;;4.88;;
79410;SDS011;69635;50.964;6.948;2024-01-25T12:22:36;15.80;;;3.13;;
79410;SDS011;69635;50.964;6.948;2024-01-25T12:25:02;14.70;;;2.50;;
79410;SDS011;69635;50.964;6.948;2024-01-25T12:27:32;9.52;;;2.42;;
79410;SDS011;69635;50.964;6.948;2024-01-25T12:29:58;24.77;;;3.45;;
79410;SDS011;69635;50.964;6.948;2024-01-25T12:32:24;11.93;;;3.28;;
79410;SDS011;69635;50.964;6.948;2024-01-25T12:34:53;11.35;;;2.97;;
79410;SDS011;69635;50.964;6.948;2024-01-25T12:37:22;12.32;;;3.15;;
79410;SDS011;69635;50.964;6.948;2024-01-25T12:39:48;16.05;;;4.18;;
79410;SDS011;69635;50.964;6.948;2024-01-25T12:42:14;14.60;;;3.33;;
79410;SDS011;69635;50.964;6.948;2024-01-25T12:44:40;8.48;;;2.85;;
79410;SDS011;69635;50.964;6.948;2024-01-25T12:47:05;16.00;;;3.08;;
79410;SDS011;69635;50.964;6.948;2024-01-25T12:49:32;21.08;;;3.50;;
79410;SDS011;69635;50.964;6.948;2024-01-25T12:51:58;19.17;;;4.00;;
79410;SDS011;69635;50.964;6.948;2024-01-25T12:54:24;16.80;;;3.45;;
79410;SDS011;69635;50.964;6.948;2024-01-25T12:56:51;14.30;;;3.13;;
79410;SDS011;69635;50.964;6.948;2024-01-25T12:59:16;14.18;;;3.60;;
79410;SDS011;69635;50.964;6.948;2024-01-25T13:04:24;12.23;;;3.55;;
79410;SDS011;69635;50.964;6.948;2024-01-25T13:06:53;10.90;;;3.45;;
79410;SDS011;69635;50.964;6.948;2024-01-25T13:09:22;11.50;;;3.40;;
79410;SDS011;69635;50.964;6.948;2024-01-25T13:11:48;14.60;;;3.53;;
79410;SDS011;69635;50.964;6.948;2024-01-25T13:14:14;15.27;;;3.15;;
79410;SDS011;69635;50.964;6.948;2024-01-25T13:16:39;16.50;;;4.30;;
79410;SDS011;69635;50.964;6.948;2024-01-25T13:19:05;16.08;;;3.38;;
79410;SDS011;69635;50.964;6.948;2024-01-25T13:21:43;14.40;;;3.65;;
79410;SDS011;69635;50.964;6.948;2024-01-25T13:24:08;13.55;;;2.75;;
79410;SDS011;69635;50.964;6.948;2024-01-25T13:26:40;18.45;;;2.85;;
79410;SDS011;69635;50.964;6.948;2024-01-25T13:29:05;12.23;;;2.58;;
79410;SDS011;69635;50.964;6.948;2024-01-25T13:31:31;11.50;;;3.20;;
79410;SDS011;69635;50.964;6.948;2024-01-25T13:33:56;14.52;;;2.58;;
79410;SDS011;69635;50.964;6.948;2024-01-25T13:36:22;11.05;;;2.50;;
79410;SDS011;69635;50.964;6.948;2024-01-25T13:38:47;16.10;;;2.92;;
79410;SDS011;69635;50.964;6.948;2024-01-25T13:41:13;12.07;;;2.65;;
79410;SDS011;69635;50.964;6.948;2024-01-25T13:43:38;13.55;;;2.97;;
79410;SDS011;69635;50.964;6.948;2024-01-25T13:46:04;8.90;;;2.30;;
79410;SDS011;69635;50.964;6.948;2024-01-25T13:48:29;9.80;;;2.28;;
79410;SDS011;69635;50.964;6.948;2024-01-25T13:50:54;19.92;;;2.60;;
79410;SDS011;69635;50.964;6.948;2024-01-25T13:53:20;10.20;;;2.45;;
79410;SDS011;69635;50.964;6.948;2024-01-25T13:55:45;14.82;;;2.85;;
79410;SDS011;69635;50.964;6.948;2024-01-25T13:58:11;11.75;;;2.83;;
79410;SDS011;69635;50.964;6.948;2024-01-25T14:00:36;18.95;;;2.95;;
79410;SDS011;69635;50.964;6.948;2024-01-25T14:03:02;15.52;;;3.17;;
79410;SDS011;69635;50.964;6.948;2024-01-25T14:05:27;12.80;;;2.42;;
79410;SDS011;69635;50.964;6.948;2024-01-25T14:07:53;12.73;;;2.90;;
79410;SDS011;69635;50.964;6.948;2024-01-25T14:10:18;13.70;;;3.13;;
79410;SDS011;69635;50.964;6.948;2024-01-25T14:12:45;9.93;;;2.38;;
79410;SDS011;69635;50.964;6.948;2024-01-25T14:15:11;16.48;;;3.58;;
79410;SDS011;69635;50.964;6.948;2024-01-25T14:17:37;9.82;;;2.35;;
79410;SDS011;69635;50.964;6.948;2024-01-25T14:20:03;15.18;;;2.30;;
79410;SDS011;69635;50.964;6.948;2024-01-25T14:22:29;8.55;;;2.80;;
79410;SDS011;69635;50.964;6.948;2024-01-25T14:24:55;13.75;;;2.17;;
79410;SDS011;69635;50.964;6.948;2024-01-25T14:27:21;12.90;;;2.53;;
79410;SDS011;69635;50.964;6.948;2024-01-25T14:29:46;20.13;;;2.75;;
79410;SDS011;69635;50.964;6.948;2024-01-25T14:32:11;12.90;;;3.17;;
79410;SDS011;69635;50.964;6.948;2024-01-25T14:34:37;10.57;;;2.17;;
79410;SDS011;69635;50.964;6.948;2024-01-25T14:37:02;14.85;;;2.72;;
79410;SDS011;69635;50.964;6.948;2024-01-25T14:39:28;13.90;;;2.78;;
79410;SDS011;69635;50.964;6.948;2024-01-25T14:41:53;12.68;;;2.22;;